Time;durP1;ratioP1;P1;durP2;ratioP2;P2;SDS_P1;SDS_P2;PMS_P1;PMS_P2;Temp;Humidity;BMP_temperature;BMP_pressure;BME280_temperature;BME280_humidity;BME280_pressure;Samples;Min_cycle;Max_cycle;Signal;HPM_P1;HPM_P2
2023/09/26 00:02:00;;;;;;;16.17;11.55;;;15.50;99.90;;;;;;5113688;28;20055;-69
2023/09/26 00:04:27;;;;;;;16.40;11.57;;;;;;;;;;5096878;28;20039;-70
2023/09/26 00:06:57;;;;;;;14.10;11.20;;;14.70;99.90;;;;;;5113760;28;20483;-77
2023/09/26 00:09:23;;;;;;;15.02;11.48;;;;;;;;;;5119518;28;20091;-77
2023/09/26 00:11:49;;;;;;;16.27;11.10;;;;;;;;;;5133894;28;20055;-77
2023/09/26 00:14:15;;;;;;;17.75;11.13;;;;;;;;;;5132677;28;20055;-77
2023/09/26 00:16:41;;;;;;;13.55;10.63;;;;;;;;;;5132945;28;20069;-78
2023/09/26 00:19:07;;;;;;;16.60;10.45;;;;;;;;;;5132227;28;20092;-77
2023/09/26 00:21:33;;;;;;;14.75;11.18;;;;;;;;;;5112680;28;20036;-76
2023/09/26 00:23:59;;;;;;;12.50;9.70;;;;;;;;;;5113504;28;20394;-71
2023/09/26 00:26:25;;;;;;;17.02;11.52;;;;;;;;;;5112380;28;20035;-70
2023/09/26 00:28:52;;;;;;;18.63;13.10;;;;;;;;;;5112488;28;20108;-77
2023/09/26 00:31:18;;;;;;;18.83;12.82;;;;;;;;;;5115435;28;20040;-77
2023/09/26 00:33:44;;;;;;;22.25;12.80;;;;;;;;;;5115779;28;20093;-77
2023/09/26 00:36:10;;;;;;;19.52;13.77;;;;;;;;;;5114869;28;20058;-77
2023/09/26 00:38:37;;;;;;;17.40;12.95;;;;;;;;;;5098216;28;20082;-76
2023/09/26 00:41:03;;;;;;;21.00;14.55;;;;;;;;;;5115591;28;20195;-77
2023/09/26 00:43:29;;;;;;;20.15;13.45;;;;;;;;;;5096361;28;20054;-77
2023/09/26 00:45:58;;;;;;;18.67;12.93;;;15.70;99.90;;;;;;5112771;28;20061;-77
2023/09/26 00:48:24;;;;;;;18.00;13.25;;;;;;;;;;5112083;28;20506;-76
2023/09/26 00:50:51;;;;;;;21.67;13.77;;;;;;;;;;5112246;28;20039;-77
2023/09/26 00:53:18;;;;;;;17.17;13.13;;;;;;;;;;5112404;28;20460;-77
2023/09/26 00:55:44;;;;;;;18.10;13.38;;;;;;;;;;5112062;28;20364;-77
2023/09/26 00:58:10;;;;;;;18.98;13.45;;;;;;;;;;5112250;28;20074;-77
2023/09/26 01:00:38;;;;;;;18.80;12.98;;;15.30;99.90;;;;;;5112355;28;20047;-77
2023/09/26 01:03:04;;;;;;;17.65;12.13;;;;;;;;;;5113708;28;20387;-77
2023/09/26 01:05:31;;;;;;;18.33;13.15;;;;;;;;;;5113625;28;20044;-77
2023/09/26 01:07:57;;;;;;;16.52;12.40;;;;;;;;;;5112202;28;20039;-78
2023/09/26 01:10:23;;;;;;;16.40;12.63;;;;;;;;;;5112124;28;20063;-77
2023/09/26 01:12:50;;;;;;;15.48;12.45;;;;;;;;;;5111865;28;20035;-77
2023/09/26 01:15:30;;;;;;;20.90;12.98;;;;;;;;;;5094643;28;20044;-77
2023/09/26 01:17:56;;;;;;;15.43;11.13;;;;;;;;;;5111892;28;20118;-77
2023/09/26 01:20:22;;;;;;;16.13;12.00;;;;;;;;;;5111751;28;20553;-76
2023/09/26 01:22:49;;;;;;;16.35;11.73;;;15.00;99.90;;;;;;5094683;28;20039;-77
2023/09/26 01:25:16;;;;;;;15.32;11.80;;;;;;;;;;5112798;28;20128;-77
2023/09/26 01:27:42;;;;;;;15.48;11.65;;;;;;;;;;5111789;28;20433;-78
2023/09/26 01:30:09;;;;;;;16.35;10.65;;;;;;;;;;5111675;28;20039;-76
2023/09/26 01:32:35;;;;;;;14.55;11.00;;;;;;;;;;5111702;28;20047;-76
2023/09/26 01:35:01;;;;;;;15.35;11.18;;;15.90;99.90;;;;;;5111181;28;20092;-76
2023/09/26 01:37:27;;;;;;;14.90;11.05;;;;;;;;;;5111302;28;20046;-77
2023/09/26 01:39:53;;;;;;;13.98;10.88;;;;;;;;;;5111401;28;20043;-76
2023/09/26 01:42:19;;;;;;;14.23;11.40;;;;;;;;;;5111362;28;20502;-76
2023/09/26 01:44:45;;;;;;;18.63;11.48;;;15.50;99.90;;;;;;5111024;28;20403;-77
2023/09/26 01:47:19;;;;;;;15.18;11.30;;;;;;;;;;5111079;28;20145;-77
2023/09/26 01:49:45;;;;;;;14.13;10.60;;;;;;;;;;5111111;28;20045;-76
2023/09/26 01:52:11;;;;;;;13.90;10.63;;;;;;;;;;5111027;28;20048;-76
2023/09/26 01:54:37;;;;;;;16.88;11.30;;;;;;;;;;5110998;28;20504;-76
2023/09/26 01:57:03;;;;;;;15.07;10.93;;;;;;;;;;5111285;28;20456;-76
2023/09/26 01:59:29;;;;;;;17.15;10.25;;;;;;;;;;5117777;28;20141;-76
2023/09/26 02:01:55;;;;;;;12.82;10.65;;;;;;;;;;5117739;28;20095;-76
2023/09/26 02:04:21;;;;;;;14.57;10.55;;;;;;;;;;5117696;28;20089;-76
2023/09/26 02:06:47;;;;;;;14.00;10.85;;;;;;;;;;5100718;28;20047;-76
2023/09/26 02:09:13;;;;;;;15.40;11.80;;;;;;;;;;5117816;28;20131;-76
2023/09/26 02:11:39;;;;;;;13.73;10.85;;;;;;;;;;5117754;28;20097;-76
2023/09/26 02:14:07;;;;;;;13.52;9.98;;;;;;;;;;5100505;28;20477;-76
2023/09/26 02:16:33;;;;;;;13.40;10.18;;;;;;;;;;5117719;28;20430;-77
2023/09/26 02:18:59;;;;;;;17.75;11.10;;;;;;;;;;5117811;28;20046;-76
2023/09/26 02:21:26;;;;;;;13.73;11.02;;;;;;;;;;5117930;28;20051;-76
2023/09/26 02:23:52;;;;;;;13.88;10.13;;;;;;;;;;5117677;28;20047;-76
2023/09/26 02:26:18;;;;;;;15.95;10.88;;;;;;;;;;5117656;28;20049;-76
2023/09/26 02:28:45;;;;;;;13.82;11.50;;;;;;;;;;5117635;28;20467;-76
2023/09/26 02:31:17;;;;;;;13.10;10.00;;;;;;;;;;5100896;28;20123;-77
2023/09/26 02:33:45;;;;;;;15.30;10.43;;;;;;;;;;5117670;28;20371;-77
2023/09/26 02:36:11;;;;;;;13.85;11.02;;;;;;;;;;5117398;28;20043;-77
2023/09/26 02:38:37;;;;;;;14.88;11.52;;;;;;;;;;5117780;28;20065;-77
2023/09/26 02:41:03;;;;;;;12.95;10.52;;;;;;;;;;5117381;28;20051;-77
2023/09/26 02:43:29;;;;;;;15.10;10.38;;;;;;;;;;5100335;28;20517;-77
2023/09/26 02:45:55;;;;;;;15.52;9.98;;;;;;;;;;5117526;28;20476;-76
2023/09/26 02:48:21;;;;;;;17.15;10.20;;;;;;;;;;5117478;28;20510;-77
2023/09/26 02:50:47;;;;;;;15.05;10.50;;;15.50;99.90;;;;;;5118081;28;20445;-77
2023/09/26 02:53:12;;;;;;;13.82;10.35;;;13.50;99.90;;;;;;5117740;28;20046;-77
2023/09/26 02:55:41;;;;;;;13.82;10.75;;;14.50;99.90;;;;;;5100556;28;20123;-77
2023/09/26 02:58:07;;;;;;;13.40;10.63;;;;;;;;;;5117484;28;20067;-77
2023/09/26 03:00:33;;;;;;;18.48;10.57;;;;;;;;;;5117275;28;20507;-77
2023/09/26 03:03:00;;;;;;;13.80;10.75;;;;;;;;;;5100493;28;20043;-77
2023/09/26 03:05:26;;;;;;;13.70;10.88;;;;;;;;;;5117653;28;20084;-77
2023/09/26 03:07:52;;;;;;;15.73;11.52;;;;;;;;;;5100587;28;20420;-76
2023/09/26 03:10:18;;;;;;;15.13;12.48;;;;;;;;;;5114455;28;20042;-77
2023/09/26 03:12:45;;;;;;;14.07;10.68;;;;;;;;;;5114530;28;20040;-77
2023/09/26 03:15:11;;;;;;;17.67;11.15;;;;;;;;;;5113939;28;20398;-76
2023/09/26 03:17:37;;;;;;;13.43;11.02;;;;;;;;;;5114153;28;20059;-77
2023/09/26 03:20:04;;;;;;;17.15;12.48;;;;;;;;;;5114113;28;20032;-77
2023/09/26 03:22:30;;;;;;;19.70;11.27;;;;;;;;;;5114485;28;20027;-76
2023/09/26 03:24:56;;;;;;;17.15;11.48;;;;;;;;;;5114978;28;20372;-76
2023/09/26 03:27:23;;;;;;;12.90;10.85;;;14.90;99.90;;;;;;5114365;28;20127;-77
2023/09/26 03:29:52;;;;;;;16.58;10.98;;;14.30;99.90;;;;;;5114242;28;20051;-76
2023/09/26 03:32:18;;;;;;;16.75;11.55;;;;;;;;;;5125033;28;20104;-77
2023/09/26 03:34:44;;;;;;;16.73;10.80;;;;;;;;;;5132499;28;20047;-76
2023/09/26 03:37:10;;;;;;;14.27;11.57;;;;;;;;;;5133352;28;20067;-77
2023/09/26 03:39:36;;;;;;;14.18;10.82;;;;;;;;;;5130625;28;20043;-73
2023/09/26 03:42:02;;;;;;;13.82;10.48;;;;;;;;;;5094653;28;20071;-76
2023/09/26 03:44:28;;;;;;;17.20;12.10;;;;;;;;;;5128362;28;20092;-76
2023/09/26 03:46:54;;;;;;;15.50;12.35;;;;;;;;;;5114706;28;20088;-76
2023/09/26 03:49:20;;;;;;;15.45;11.63;;;;;;;;;;5115037;28;20114;-76
2023/09/26 03:51:46;;;;;;;17.02;12.48;;;;;;;;;;5115821;28;20398;-76
2023/09/26 03:54:12;;;;;;;13.90;11.27;;;;;;;;;;5097120;28;20039;-76
2023/09/26 03:56:39;;;;;;;14.57;11.32;;;;;;;;;;5113296;28;20096;-76
2023/09/26 03:59:05;;;;;;;14.55;10.82;;;;;;;;;;5113086;28;20036;-76
2023/09/26 04:01:31;;;;;;;13.45;11.82;;;;;;;;;;5113160;28;20426;-76
2023/09/26 04:03:56;;;;;;;17.20;11.48;;;14.10;99.90;;;;;;5096183;28;20122;-76
2023/09/26 04:06:22;;;;;;;19.35;12.32;;;;;;;;;;5113097;28;20127;-76
2023/09/26 04:08:49;;;;;;;18.98;11.60;;;;;;;;;;5112851;28;20039;-77
2023/09/26 04:11:15;;;;;;;14.85;11.75;;;;;;;;;;5112674;28;20075;-76
2023/09/26 04:13:42;;;;;;;16.70;12.00;;;;;;;;;;5096493;27;20134;-76
2023/09/26 04:16:09;;;;;;;14.88;11.77;;;;;;;;;;5131869;27;20055;-76
2023/09/26 04:18:35;;;;;;;18.13;12.82;;;;;;;;;;5116097;27;20487;-76
2023/09/26 04:21:03;;;;;;;15.45;11.93;;;14.00;99.90;;;;;;5099173;27;20065;-76
2023/09/26 04:23:29;;;;;;;18.17;12.77;;;;;;;;;;5115898;27;20043;-76
2023/09/26 04:25:55;;;;;;;15.80;12.30;;;;;;;;;;5116278;27;20466;-76
2023/09/26 04:28:21;;;;;;;16.42;12.55;;;;;;;;;;5116307;27;20039;-76
2023/09/26 04:30:47;;;;;;;18.50;12.68;;;;;;;;;;5116210;27;20039;-76
2023/09/26 04:33:13;;;;;;;16.30;12.52;;;;;;;;;;5116148;27;20031;-70
2023/09/26 04:35:39;;;;;;;18.17;12.07;;;;;;;;;;5115926;27;20192;-70
2023/09/26 04:38:05;;;;;;;17.45;13.93;;;;;;;;;;5116159;27;20031;-70
2023/09/26 04:40:31;;;;;;;15.13;12.77;;;;;;;;;;5116048;27;20040;-69
2023/09/26 04:43:03;;;;;;;19.17;13.15;;;13.90;99.90;;;;;;5082217;27;20092;-70
2023/09/26 04:45:29;;;;;;;14.50;11.93;;;;;;;;;;5115510;27;20115;-69
2023/09/26 04:48:00;;;;;;;18.02;13.95;;;;;;;;;;5098402;27;20573;-69
2023/09/26 04:50:26;;;;;;;17.88;13.82;;;;;;;;;;5115929;27;20453;-69
2023/09/26 04:52:52;;;;;;;16.38;12.90;;;;;;;;;;5115545;27;20031;-70
2023/09/26 04:55:18;;;;;;;17.70;13.50;;;14.50;99.90;;;;;;5098758;27;20035;-69
2023/09/26 04:57:44;;;;;;;17.80;13.52;;;;;;;;;;5134230;27;20107;-69
2023/09/26 05:00:11;;;;;;;20.63;13.73;;;;;;;;;;5115516;27;20428;-69
2023/09/26 05:02:37;;;;;;;17.20;13.82;;;;;;;;;;5115762;27;20082;-70
2023/09/26 05:05:03;;;;;;;19.70;14.20;;;;;;;;;;5115357;27;20039;-69
2023/09/26 05:07:30;;;;;;;18.35;14.00;;;;;;;;;;5082094;27;20401;-69
2023/09/26 05:09:57;;;;;;;19.58;13.90;;;;;;;;;;5115481;27;20047;-70
2023/09/26 05:12:23;;;;;;;17.17;13.45;;;;;;;;;;5115534;27;20062;-69
2023/09/26 05:14:49;;;;;;;17.40;13.60;;;;;;;;;;5111660;28;20105;-70
2023/09/26 05:17:15;;;;;;;18.40;14.35;;;;;;;;;;5112137;28;20108;-70
2023/09/26 05:19:41;;;;;;;19.35;13.63;;;;;;;;;;5094970;28;20377;-70
2023/09/26 05:22:07;;;;;;;20.38;13.60;;;;;;;;;;5111870;28;20066;-69
2023/09/26 05:24:33;;;;;;;19.70;13.77;;;;;;;;;;5111791;28;20134;-70
2023/09/26 05:26:59;;;;;;;20.48;14.15;;;;;;;;;;5111452;28;20051;-69
2023/09/26 05:29:25;;;;;;;17.30;13.52;;;12.70;99.90;;;;;;5112207;28;20047;-70
2023/09/26 05:31:51;;;;;;;22.30;14.68;;;14.70;99.90;;;;;;5111596;28;20039;-69
2023/09/26 05:34:17;;;;;;;19.13;13.40;;;;;;;;;;5112420;28;20104;-70
2023/09/26 05:36:42;;;;;;;17.10;14.20;;;12.50;99.90;;;;;;5111446;28;20051;-70
2023/09/26 05:39:08;;;;;;;19.48;15.10;;;;;;;;;;5094723;28;20051;-69
2023/09/26 05:41:35;;;;;;;16.65;13.30;;;;;;;;;;5111651;28;20035;-70
2023/09/26 05:44:01;;;;;;;20.00;14.15;;;;;;;;;;5094927;28;20071;-70
2023/09/26 05:46:27;;;;;;;17.00;13.65;;;;;;;;;;5094687;28;20043;-69
2023/09/26 05:48:53;;;;;;;32.95;14.52;;;;;;;;;;5094865;28;20475;-69
2023/09/26 05:51:19;;;;;;;20.08;13.73;;;;;;;;;;5111573;28;20097;-75
2023/09/26 05:53:45;;;;;;;18.88;14.15;;;;;;;;;;5111660;28;20493;-76
2023/09/26 05:56:11;;;;;;;16.35;13.18;;;;;;;;;;5111286;28;20529;-76
2023/09/26 05:58:37;;;;;;;20.23;13.20;;;;;;;;;;5111650;28;20071;-76
2023/09/26 06:01:08;;;;;;;17.45;14.05;;;;;;;;;;5111408;28;20040;-75
2023/09/26 06:03:34;;;;;;;15.60;13.05;;;;;;;;;;5111556;28;20051;-75
2023/09/26 06:06:03;;;;;;;18.88;13.23;;;13.70;99.90;;;;;;5111285;28;20050;-76
2023/09/26 06:08:29;;;;;;;20.20;14.38;;;;;;;;;;5094783;28;20117;-69
2023/09/26 06:10:56;;;;;;;19.42;13.68;;;;;;;;;;5111536;28;20048;-69
2023/09/26 06:13:22;;;;;;;18.45;14.55;;;;;;;;;;5111391;28;20043;-69
2023/09/26 06:15:48;;;;;;;23.73;14.07;;;;;;;;;;5111333;28;20048;-69
2023/09/26 06:18:14;;;;;;;16.73;13.73;;;;;;;;;;5094781;28;20043;-69
2023/09/26 06:20:44;;;;;;;19.42;13.77;;;;;;;;;;5111502;28;20050;-69
2023/09/26 06:23:10;;;;;;;18.17;13.98;;;;;;;;;;5111604;28;20059;-69
2023/09/26 06:25:36;;;;;;;18.60;13.77;;;;;;;;;;5094122;28;20035;-69
2023/09/26 06:28:02;;;;;;;17.58;13.73;;;;;;;;;;5111479;28;20042;-69
2023/09/26 06:30:29;;;;;;;20.95;13.88;;;;;;;;;;5111502;28;20108;-69
2023/09/26 06:32:55;;;;;;;17.83;14.43;;;;;;;;;;5112838;28;20034;-69
2023/09/26 06:35:21;;;;;;;21.23;14.23;;;;;;;;;;5111828;28;20040;-69
2023/09/26 06:37:47;;;;;;;20.70;12.73;;;;;;;;;;5094500;28;20031;-69
2023/09/26 06:40:13;;;;;;;18.13;14.23;;;;;;;;;;5094843;28;20088;-68
2023/09/26 06:42:39;;;;;;;19.20;14.20;;;;;;;;;;5112252;28;20044;-69
2023/09/26 06:45:06;;;;;;;21.48;15.75;;;;;;;;;;5112797;28;20127;-69
2023/09/26 06:47:33;;;;;;;19.67;15.02;;;14.30;99.90;;;;;;5121994;28;20039;-69
2023/09/26 06:49:59;;;;;;;19.20;15.35;;;;;;;;;;5125327;28;20039;-69
2023/09/26 06:52:25;;;;;;;21.55;14.95;;;;;;;;;;5118194;28;20149;-69
2023/09/26 06:54:51;;;;;;;18.67;14.00;;;;;;;;;;5117081;28;20150;-69
2023/09/26 06:57:26;;;;;;;19.85;14.85;;;;;;;;;;5122562;28;20035;-68
2023/09/26 06:59:52;;;;;;;22.08;15.02;;;;;;;;;;5137829;28;20556;-70
2023/09/26 07:02:18;;;;;;;19.00;13.57;;;;;;;;;;5136646;28;20047;-68
2023/09/26 07:04:46;;;;;;;21.15;14.98;;;;;;;;;;5134866;28;20063;-69
2023/09/26 07:07:12;;;;;;;27.38;14.55;;;;;;;;;;5125459;28;20043;-69
2023/09/26 07:09:42;;;;;;;18.98;14.18;;;;;;;;;;5126094;28;20119;-69
2023/09/26 07:12:08;;;;;;;20.23;16.02;;;;;;;;;;5114131;28;20483;-69
2023/09/26 07:14:35;;;;;;;19.75;14.02;;;;;;;;;;5115441;27;20052;-69
2023/09/26 07:17:02;;;;;;;24.27;15.07;;;;;;;;;;5117045;27;20059;-69
2023/09/26 07:19:34;;;;;;;22.40;15.07;;;;;;;;;;5117313;27;20046;-69
2023/09/26 07:22:00;;;;;;;;;;;;;;;;;;5117620;27;20509;-69
2023/09/26 07:24:26;;;;;;;19.38;13.88;;;;;;;;;;5117401;27;19915;-68
2023/09/26 07:26:52;;;;;;;21.10;14.52;;;;;;;;;;5100108;27;20051;-68
2023/09/26 07:29:19;;;;;;;24.63;13.70;;;;;;;;;;5117509;27;20039;-68
2023/09/26 07:31:45;;;;;;;18.92;15.25;;;;;;;;;;5100666;27;20057;-68
2023/09/26 07:34:11;;;;;;;19.38;14.65;;;;;;;;;;5117681;27;20438;-69
2023/09/26 07:36:38;;;;;;;21.52;14.68;;;;;;;;;;5100337;27;20138;-68
2023/09/26 07:39:05;;;;;;;17.52;13.90;;;;;;;;;;5117427;27;20027;-68
2023/09/26 07:41:31;;;;;;;19.35;14.48;;;;;;;;;;5117429;27;20035;-75
2023/09/26 07:43:58;;;;;;;23.58;14.63;;;;;;;;;;5117054;27;20077;-75
2023/09/26 07:46:24;;;;;;;20.00;15.18;;;;;;;;;;5117266;27;20047;-75
2023/09/26 07:48:50;;;;;;;19.15;13.57;;;;;;;;;;5117097;27;20467;-76
2023/09/26 07:51:17;;;;;;;17.73;13.50;;;;;;;;;;5099841;27;20054;-76
2023/09/26 07:53:43;;;;;;;20.02;14.18;;;;;;;;;;5116811;27;20035;-78
2023/09/26 07:56:10;;;;;;;20.42;13.27;;;;;;;;;;5116026;27;20050;-75
2023/09/26 07:58:36;;;;;;;20.90;13.93;;;;;;;;;;5116675;27;20043;-76
2023/09/26 08:01:06;;;;;;;21.67;13.23;;;;;;;;;;5116374;27;20039;-76
2023/09/26 08:03:33;;;;;;;17.80;13.52;;;;;;;;;;5116737;27;20125;-77
2023/09/26 08:06:03;;;;;;;17.77;13.32;;;16.00;99.90;;;;;;5116650;27;20200;-69
2023/09/26 08:08:30;;;;;;;15.52;12.98;;;;;;;;;;5116495;27;20129;-69
2023/09/26 08:11:05;;;;;;;20.55;14.00;;;;;;;;;;5116481;27;20043;-69
2023/09/26 08:13:32;;;;;;;17.63;13.18;;;;;;;;;;5116547;27;20043;-69
2023/09/26 08:15:58;;;;;;;16.80;13.65;;;;;;;;;;5098908;27;20100;-70
2023/09/26 08:18:24;;;;;;;20.20;13.40;;;;;;;;;;5116285;27;20042;-69
2023/09/26 08:20:57;;;;;;;17.75;14.20;;;;;;;;;;5115950;27;20084;-69
2023/09/26 08:23:28;;;;;;;19.17;13.80;;;15.20;99.90;;;;;;5098846;27;20070;-69
2023/09/26 08:26:02;;;;;;;19.52;14.18;;;16.00;99.90;;;;;;5099833;27;20039;-69
2023/09/26 08:28:29;;;;;;;20.63;14.25;;;;;;;;;;5116255;27;20046;-69
2023/09/26 08:30:56;;;;;;;19.35;14.00;;;;;;;;;;5116198;27;20416;-69
2023/09/26 08:33:28;;;;;;;21.23;14.07;;;;;;;;;;5115957;27;20039;-70
2023/09/26 08:35:54;;;;;;;22.50;14.52;;;;;;;;;;5099264;27;20121;-70
2023/09/26 08:38:20;;;;;;;18.35;13.93;;;17.10;99.90;;;;;;5115911;27;20390;-69
2023/09/26 08:40:50;;;;;;;17.58;13.52;;;16.20;99.90;;;;;;5098875;27;20031;-69
2023/09/26 08:43:16;;;;;;;18.20;13.95;;;;;;;;;;5098620;27;20039;-70
2023/09/26 08:45:42;;;;;;;19.65;15.45;;;;;;;;;;5115674;27;20071;-70
2023/09/26 08:48:08;;;;;;;19.70;14.85;;;;;;;;;;5098794;27;20118;-69
2023/09/26 08:50:34;;;;;;;21.58;13.48;;;;;;;;;;5098652;27;20049;-70
2023/09/26 08:53:00;;;;;;;21.88;14.32;;;;;;;;;;5115437;27;20088;-69
2023/09/26 08:55:27;;;;;;;22.70;13.77;;;16.90;99.90;;;;;;5115402;27;20035;-70
2023/09/26 08:57:55;;;;;;;16.17;12.13;;;;;;;;;;5115454;27;20088;-70
2023/09/26 09:00:21;;;;;;;14.75;11.68;;;16.10;99.90;;;;;;5098437;27;20035;-70
2023/09/26 09:02:48;;;;;;;15.57;11.77;;;;;;;;;;5115485;27;20046;-69
2023/09/26 09:05:19;;;;;;;17.88;12.95;;;17.00;99.90;;;;;;5098361;27;20092;-70
2023/09/26 09:07:46;;;;;;;18.63;13.38;;;17.90;99.90;;;;;;5114968;27;20391;-69
2023/09/26 09:10:13;;;;;;;16.92;12.57;;;16.90;99.90;;;;;;5098914;27;20463;-70
2023/09/26 09:12:41;;;;;;;19.83;13.60;;;16.00;99.90;;;;;;5115379;27;20039;-70
2023/09/26 09:15:16;;;;;;;19.35;12.80;;;17.90;99.90;;;;;;5111711;28;20131;-70
2023/09/26 09:17:46;;;;;;;17.40;12.98;;;17.10;99.90;;;;;;5112169;28;20096;-70
2023/09/26 09:20:16;;;;;;;18.13;12.90;;;;;;;;;;5111909;28;20046;-69
2023/09/26 09:22:46;;;;;;;21.25;13.52;;;17.80;99.90;;;;;;5111834;28;20487;-70
2023/09/26 09:25:12;;;;;;;17.02;13.38;;;;;;;;;;5111840;28;20050;-70
2023/09/26 09:27:42;;;;;;;15.32;11.93;;;;;;;;;;5111824;28;20054;-69
2023/09/26 09:30:12;;;;;;;19.00;11.93;;;16.80;99.90;;;;;;5111570;28;20054;-70
2023/09/26 09:32:42;;;;;;;14.98;11.80;;;17.20;99.90;;;;;;5111739;28;20044;-69
2023/09/26 09:35:15;;;;;;;14.88;11.48;;;17.00;99.90;;;;;;5111468;28;20036;-69
2023/09/26 09:37:46;;;;;;;17.52;12.00;;;17.10;99.90;;;;;;5111479;28;20039;-77
2023/09/26 09:40:19;;;;;;;18.45;13.13;;;;;;;;;;5094814;28;20073;-77
2023/09/26 09:42:47;;;;;;;17.15;12.73;;;;;;;;;;5112606;28;20047;-77
2023/09/26 09:45:14;;;;;;;14.50;12.50;;;;;;;;;;5113019;28;20047;-77
2023/09/26 09:47:42;;;;;;;17.25;12.85;;;16.20;99.90;;;;;;5111562;28;20047;-77
2023/09/26 09:50:08;;;;;;;19.67;13.45;;;;;;;;;;5094801;28;20386;-76
2023/09/26 09:52:37;;;;;;;18.75;13.48;;;17.00;99.90;;;;;;5094747;28;20069;-76
2023/09/26 09:55:06;;;;;;;16.38;11.90;;;;;;;;;;5111889;28;20040;-77
2023/09/26 09:57:35;;;;;;;18.52;12.25;;;17.20;99.90;;;;;;5112017;28;20100;-77
2023/09/26 10:00:05;;;;;;;18.20;13.55;;;;;;;;;;5111611;28;20040;-77
2023/09/26 10:02:31;;;;;;;14.40;11.25;;;;;;;;;;5111761;28;20487;-76
2023/09/26 10:05:00;;;;;;;17.17;12.50;;;17.30;99.90;;;;;;5111458;28;20039;-77
2023/09/26 10:07:27;;;;;;;17.15;12.45;;;18.10;99.90;;;;;;5111818;28;20047;-77
2023/09/26 10:09:54;;;;;;;20.10;13.55;;;18.10;99.90;;;;;;5111365;28;20096;-77
2023/09/26 10:12:21;;;;;;;22.25;13.10;;;17.10;99.90;;;;;;5111899;28;20052;-77
2023/09/26 10:14:47;;;;;;;18.60;12.75;;;;;;;;;;5113348;28;20075;-77
2023/09/26 10:17:14;;;;;;;18.40;12.63;;;;;;;;;;5124903;28;20055;-79
2023/09/26 10:19:40;;;;;;;20.58;12.98;;;;;;;;;;5130517;27;20048;-78
2023/09/26 10:22:14;;;;;;;20.15;13.93;;;18.30;99.90;;;;;;5111531;27;20035;-76
2023/09/26 10:24:51;;;;;;;16.95;12.98;;;16.60;99.90;;;;;;5123756;27;20039;-77
2023/09/26 10:27:32;;;;;;;18.73;13.35;;;;;;;;;;5124290;27;20096;-77
2023/09/26 10:30:00;;;;;;;19.90;12.85;;;;;;;;;;5124007;27;20471;-77
2023/09/26 10:32:35;;;;;;;17.67;13.30;;;18.10;99.90;;;;;;5119529;27;20054;-77
2023/09/26 10:35:15;;;;;;;20.85;12.68;;;17.70;99.90;;;;;;5119067;27;20046;-76
2023/09/26 10:37:45;;;;;;;16.23;13.25;;;16.50;99.90;;;;;;5119184;27;20043;-77
2023/09/26 10:40:21;;;;;;;18.92;12.75;;;;;;;;;;5118851;27;20062;-76
2023/09/26 10:42:49;;;;;;;18.58;12.77;;;18.00;99.90;;;;;;5136918;27;20043;-70
2023/09/26 10:45:16;;;;;;;23.15;12.90;;;18.10;99.90;;;;;;5118328;27;20039;-70
2023/09/26 10:47:42;;;;;;;18.27;13.38;;;;;;;;;;5118264;27;20043;-70
2023/09/26 10:50:12;;;;;;;16.65;11.98;;;18.00;99.90;;;;;;5118468;27;20057;-70
2023/09/26 10:52:46;;;;;;;14.70;10.45;;;19.00;99.90;;;;;;5102047;27;20180;-71
2023/09/26 10:55:21;;;;;;;19.10;12.70;;;18.40;99.90;;;;;;5118223;27;20040;-70
2023/09/26 10:57:51;;;;;;;16.75;12.40;;;18.30;99.90;;;;;;5118410;27;20051;-70
2023/09/26 11:00:17;;;;;;;16.88;10.80;;;19.40;99.90;;;;;;5118523;27;20058;-70
2023/09/26 11:02:45;;;;;;;16.55;12.57;;;18.80;99.90;;;;;;5136868;27;20118;-69
2023/09/26 11:05:13;;;;;;;16.80;12.07;;;18.90;99.90;;;;;;5118605;27;20058;-70
2023/09/26 11:07:40;;;;;;;15.32;10.88;;;19.80;99.90;;;;;;5118694;27;20057;-70
2023/09/26 11:10:12;;;;;;;18.77;11.15;;;19.30;99.90;;;;;;5118755;27;20085;-70
2023/09/26 11:12:42;;;;;;;16.15;11.20;;;19.20;99.90;;;;;;5118837;27;20053;-70
2023/09/26 11:15:09;;;;;;;18.88;11.88;;;19.80;99.90;;;;;;5118394;27;20055;-70
2023/09/26 11:17:36;;;;;;;17.80;11.43;;;19.20;99.90;;;;;;5118594;27;20834;-70
2023/09/26 11:20:05;;;;;;;16.38;10.82;;;;;;;;;;5118458;27;20456;-70
2023/09/26 11:22:44;;;;;;;15.68;11.18;;;19.40;99.90;;;;;;5118312;27;20082;-70
2023/09/26 11:25:10;;;;;;;13.10;10.05;;;18.60;99.90;;;;;;5118436;27;20039;-70
2023/09/26 11:27:44;;;;;;;15.38;9.73;;;20.50;99.90;;;;;;5118433;27;20050;-70
2023/09/26 11:30:14;;;;;;;14.05;9.13;;;19.60;99.90;;;;;;5101305;28;20525;-70
2023/09/26 11:32:42;;;;;;;17.38;10.57;;;20.00;99.90;;;;;;5118065;27;20047;-69
2023/09/26 11:35:09;;;;;;;14.57;9.25;;;19.90;99.90;;;;;;5118188;27;20047;-69
2023/09/26 11:37:37;;;;;;;18.77;10.30;;;20.60;99.90;;;;;;5101633;27;20051;-76
2023/09/26 11:40:06;;;;;;;16.88;9.20;;;20.20;99.90;;;;;;5118192;27;20118;-69
2023/09/26 11:42:44;;;;;;;15.63;9.68;;;20.10;99.90;;;;;;5118060;27;20071;-69
2023/09/26 11:45:19;;;;;;;11.50;8.52;;;19.80;99.90;;;;;;5118375;27;20371;-69
2023/09/26 11:47:45;;;;;;;14.57;9.32;;;;;;;;;;5136576;27;20440;-69
2023/09/26 11:50:11;;;;;;;17.63;8.40;;;20.40;99.90;;;;;;5118015;27;20035;-69
2023/09/26 11:52:37;;;;;;;14.40;7.97;;;21.30;99.90;;;;;;5136490;27;20042;-69
2023/09/26 11:55:03;;;;;;;13.68;8.05;;;21.30;99.90;;;;;;5101002;27;20031;-69
2023/09/26 11:57:34;;;;;;;13.57;7.75;;;20.00;99.90;;;;;;5118163;27;20110;-76
2023/09/26 12:00:00;;;;;;;16.30;8.70;;;;;;;;;;5117899;27;20047;-76
2023/09/26 12:02:26;;;;;;;17.00;9.18;;;;;;;;;;5117874;27;20077;-76
2023/09/26 12:04:52;;;;;;;10.27;7.60;;;20.80;99.90;;;;;;5118006;27;20138;-76
2023/09/26 12:07:18;;;;;;;11.95;7.93;;;;;;;;;;5101002;27;20553;-76
2023/09/26 12:09:44;;;;;;;14.23;8.23;;;20.30;99.90;;;;;;5118200;27;20444;-76
2023/09/26 12:12:10;;;;;;;15.75;7.70;;;20.10;99.90;;;;;;5100831;27;20043;-76
2023/09/26 12:14:36;;;;;;;13.50;7.63;;;21.00;99.90;;;;;;5100467;27;20078;-75
2023/09/26 12:17:03;;;;;;;9.82;6.88;;;;;;;;;;5117155;27;20047;-75
2023/09/26 12:19:29;;;;;;;12.55;7.65;;;;;;;;;;5100668;27;20059;-76
2023/09/26 12:21:55;;;;;;;10.23;7.65;;;21.40;99.90;;;;;;5100861;27;20054;-76
2023/09/26 12:24:21;;;;;;;13.27;7.55;;;;;;;;;;5117371;27;20371;-76
2023/09/26 12:26:47;;;;;;;13.40;7.15;;;;;;;;;;5117586;27;20096;-76
2023/09/26 12:29:14;;;;;;;12.43;7.45;;;21.10;99.90;;;;;;5083475;27;20083;-77
2023/09/26 13:15:40;;;;;;;14.80;7.80;;;;;;;;;;5702504;23;20636;-78
2023/09/26 13:18:07;;;;;;;12.07;7.97;;;;;;;;;;4935787;29;20060;-75
2023/09/26 13:20:33;;;;;;;11.88;6.97;;;;;;;;;;4886973;29;20040;-76
2023/09/26 13:22:59;;;;;;;11.13;6.90;;;20.90;99.60;;;;;;4901937;29;20803;-76
2023/09/26 13:25:25;;;;;;;9.30;6.18;;;22.40;99.90;;;;;;4902478;29;20047;-76
2023/09/26 13:27:51;;;;;;;11.20;6.53;;;22.50;99.90;;;;;;4900900;29;20122;-76
2023/09/26 13:30:17;;;;;;;11.60;6.50;;;;;;;;;;4900268;29;20051;-77
2023/09/26 13:32:43;;;;;;;9.95;6.32;;;21.80;99.90;;;;;;4900782;29;20504;-77
2023/09/26 13:35:09;;;;;;;11.05;6.60;;;21.20;99.90;;;;;;4884795;29;20086;-76
2023/09/26 13:37:36;;;;;;;10.45;6.32;;;21.60;99.90;;;;;;4900791;29;20059;-77
2023/09/26 13:40:04;;;;;;;10.88;7.30;;;;;;;;;;4884689;29;20535;-76
2023/09/26 13:42:30;;;;;;;10.38;7.30;;;20.80;98.20;;;;;;4900531;29;20293;-76
2023/09/26 13:44:56;;;;;;;12.65;7.20;;;;;;;;;;4900214;29;20516;-76
2023/09/26 13:47:22;;;;;;;13.70;7.00;;;;;;;;;;4900429;29;20043;-78
2023/09/26 13:49:48;;;;;;;11.20;6.40;;;;;;;;;;4900163;29;20510;-77
2023/09/26 13:52:14;;;;;;;8.00;5.97;;;;;;;;;;4901483;29;20202;-76
2023/09/26 13:54:40;;;;;;;13.77;7.65;;;21.30;99.90;;;;;;4885901;29;20165;-77
2023/09/26 13:57:05;;;;;;;15.07;6.20;;;20.70;99.90;;;;;;4900310;29;20056;-76
2023/09/26 13:59:32;;;;;;;11.65;6.22;;;;;;;;;;4884951;29;20044;-77
2023/09/26 14:01:58;;;;;;;10.57;5.32;;;;;;;;;;4900605;29;20048;-77
2023/09/26 14:04:24;;;;;;;9.45;5.18;;;;;;;;;;4900102;29;20460;-77
2023/09/26 14:06:49;;;;;;;10.00;5.30;;;21.20;99.90;;;;;;4900806;29;20051;-78
2023/09/26 14:09:15;;;;;;;7.40;4.75;;;;;;;;;;4900158;29;20408;-77
2023/09/26 14:11:41;;;;;;;8.00;5.15;;;22.60;99.90;;;;;;4900415;29;20052;-77
2023/09/26 14:14:07;;;;;;;7.85;5.00;;;;;;;;;;4917095;29;20372;-77
2023/09/26 14:16:35;;;;;;;10.63;5.63;;;22.90;99.90;;;;;;4881271;29;20084;-76
2023/09/26 14:19:01;;;;;;;10.95;6.28;;;21.20;98.10;;;;;;4881334;29;20124;-76
2023/09/26 14:21:27;;;;;;;11.25;5.93;;;22.40;99.90;;;;;;4881379;29;20064;-76
2023/09/26 14:23:52;;;;;;;9.43;5.50;;;21.60;99.80;;;;;;4881542;29;20199;-76
2023/09/26 14:26:18;;;;;;;14.27;5.50;;;21.20;99.50;;;;;;4881268;29;20049;-77
2023/09/26 14:28:44;;;;;;;10.65;5.32;;;;;;;;;;4881052;29;20147;-77